Time;durP1;ratioP1;P1;durP2;ratioP2;P2;SDS_P1;SDS_P2;PMS_P1;PMS_P2;Temp;Humidity;BMP_temperature;BMP_pressure;BME280_temperature;BME280_humidity;BME280_pressure;Samples;Min_cycle;Max_cycle;Signal;HPM_P1;HPM_P2
2021/07/05 00:00:06;;;;;;;4.72;3.47;;;;;;;22.14;55.40;100910.94;4983002;28;20034;-88
2021/07/05 00:02:32;;;;;;;4.22;3.35;;;;;;;22.17;55.21;100913.50;5015763;28;20021;-90
2021/07/05 00:04:57;;;;;;;5.13;3.28;;;;;;;22.16;55.26;100909.16;5015844;28;20092;-89
2021/07/05 00:07:24;;;;;;;4.07;3.25;;;;;;;22.17;55.46;100916.13;4999209;28;20068;-89
2021/07/05 00:09:49;;;;;;;4.38;3.45;;;;;;;22.16;55.30;100912.63;5015392;28;20053;-89
2021/07/05 00:12:14;;;;;;;4.70;3.60;;;;;;;22.13;55.23;100915.34;5003204;28;20025;-89
2021/07/05 00:14:40;;;;;;;3.85;3.40;;;;;;;22.15;55.82;100926.66;5003403;28;20086;-89
2021/07/05 00:17:05;;;;;;;6.95;3.83;;;;;;;22.14;55.95;100916.19;5003204;28;20026;-89
2021/07/05 00:19:31;;;;;;;5.07;3.45;;;;;;;22.13;55.77;100920.59;4986794;28;20360;-89
2021/07/05 00:21:56;;;;;;;6.18;3.33;;;;;;;22.14;56.28;100917.06;5019496;28;20025;-90
2021/07/05 00:24:22;;;;;;;5.05;3.53;;;;;;;22.14;55.89;100918.81;5003121;28;20036;-88
2021/07/05 00:26:47;;;;;;;3.88;3.40;;;;;;;22.16;56.03;100914.41;4986849;28;20437;-90
2021/07/05 00:29:13;;;;;;;4.57;3.40;;;;;;;22.15;55.39;100912.69;5002976;28;20108;-88
2021/07/05 00:31:39;;;;;;;4.68;3.35;;;;;;;22.17;56.09;100910.88;5002801;28;20506;-88
2021/07/05 00:34:05;;;;;;;4.57;3.28;;;;;;;22.17;55.72;100897.78;5002887;28;20040;-89
2021/07/05 00:36:30;;;;;;;3.70;3.40;;;;;;;22.15;55.95;100897.81;5002730;28;20392;-88
2021/07/05 00:38:55;;;;;;;3.75;3.25;;;;;;;22.16;55.82;100894.28;4986449;28;20061;-90
2021/07/05 00:41:21;;;;;;;3.92;3.25;;;;;;;22.18;56.18;100899.50;4986639;28;20039;-89
2021/07/05 00:43:46;;;;;;;4.72;3.40;;;;;;;22.18;55.46;100902.09;5021255;28;20133;-88
2021/07/05 00:46:12;;;;;;;7.25;3.38;;;;;;;22.18;55.76;100894.25;5004647;28;20021;-88
2021/07/05 00:48:37;;;;;;;3.85;3.45;;;;;;;22.18;55.53;100902.97;4988368;28;20028;-89
2021/07/05 00:51:03;;;;;;;4.85;3.70;;;;;;;22.18;55.76;100902.09;4986755;28;20029;-90
2021/07/05 00:53:28;;;;;;;3.72;3.25;;;;;;;22.18;55.76;100899.50;4986255;28;20398;-89
2021/07/05 00:55:53;;;;;;;4.60;3.30;;;;;;;22.18;55.89;100892.47;5002430;28;20032;-88
2021/07/05 00:58:19;;;;;;;3.90;3.38;;;;;;;22.17;56.04;100887.31;4986093;28;20025;-89
2021/07/05 01:00:45;;;;;;;3.83;3.30;;;;;;;22.17;56.10;100882.91;5018722;28;20494;-89
2021/07/05 01:03:11;;;;;;;4.78;3.70;;;;;;;22.17;56.20;100880.28;5002230;28;20040;-89
2021/07/05 01:05:36;;;;;;;5.22;3.50;;;;;;;22.17;56.18;100884.69;5002125;28;20035;-89
2021/07/05 01:08:02;;;;;;;4.57;3.35;;;;;;;22.17;55.51;100880.28;4985770;28;20040;-90
2021/07/05 01:10:28;;;;;;;4.88;3.20;;;;;;;22.17;56.29;100871.56;5018328;28;20053;-89
2021/07/05 01:12:55;;;;;;;3.63;3.08;;;;;;;22.15;55.48;100868.97;5002018;28;20574;-89
2021/07/05 01:15:24;;;;;;;3.40;3.10;;;;;;;22.16;56.03;100861.97;4985761;28;20030;-89
2021/07/05 01:17:50;;;;;;;4.88;3.47;;;;;;;22.16;55.68;100869.84;5018224;28;20095;-89
2021/07/05 01:20:19;;;;;;;3.92;3.08;;;;;;;22.14;55.62;100862.00;5002246;28;20068;-89
2021/07/05 01:22:45;;;;;;;5.45;3.45;;;;;;;22.17;55.87;100861.94;5018001;28;20033;-88
2021/07/05 01:25:15;;;;;;;4.10;3.10;;;;;;;22.17;55.31;100858.47;5018275;28;20029;-88
2021/07/05 01:27:42;;;;;;;4.07;3.03;;;;;;;22.15;55.77;100850.63;5035706;28;20100;-89
2021/07/05 01:30:08;;;;;;;4.18;3.20;;;;;;;22.15;56.06;100853.25;5018348;28;20112;-89
2021/07/05 01:32:34;;;;;;;3.67;2.78;;;;;;;22.17;55.78;100855.84;5001762;28;20021;-89
2021/07/05 01:34:59;;;;;;;3.33;2.80;;;;;;;22.16;55.29;100859.34;5017980;28;20025;-89
2021/07/05 01:37:25;;;;;;;3.15;2.60;;;;;;;22.15;55.47;100847.16;5002201;28;20121;-90
2021/07/05 01:39:50;;;;;;;4.88;3.00;;;;;;;22.15;55.73;100855.88;5001423;28;20087;-89
2021/07/05 01:42:19;;;;;;;3.85;2.90;;;;;;;22.14;55.69;100848.06;5017816;28;20060;-89
2021/07/05 01:44:44;;;;;;;3.72;2.45;;;;;;;22.13;55.31;100852.44;4986076;28;20025;-90
2021/07/05 01:47:09;;;;;;;3.83;2.65;;;;;;;22.14;55.63;100853.28;5001341;28;20475;-90
2021/07/05 01:49:35;;;;;;;4.13;2.60;;;;;;;22.13;55.74;100851.59;4985204;28;20400;-90
2021/07/05 01:52:00;;;;;;;3.45;2.45;;;;;;;22.13;55.83;100852.44;4985366;28;20056;-90
2021/07/05 01:54:26;;;;;;;4.55;3.17;;;;;;;22.13;55.82;100847.19;4985473;28;20103;-89
2021/07/05 01:56:51;;;;;;;4.13;2.50;;;;;;;22.11;55.91;100848.16;4985138;28;20029;-89
2021/07/05 01:59:16;;;;;;;6.82;2.83;;;;;;;22.13;55.98;100851.59;4985124;28;20032;-90
2021/07/05 02:01:42;;;;;;;6.28;3.20;;;;;;;22.12;55.26;100848.13;5001415;28;20036;-89
2021/07/05 02:04:07;;;;;;;3.38;2.60;;;;;;;22.13;55.46;100841.09;5001461;28;20033;-90
2021/07/05 02:06:35;;;;;;;4.47;2.75;;;;;;;22.11;55.83;100846.38;5017934;28;20079;-90
2021/07/05 02:09:05;;;;;;;4.45;2.67;;;;;;;22.12;55.31;100845.50;5035282;28;20049;-89
2021/07/05 02:11:31;;;;;;;3.75;2.60;;;;;;;22.12;55.56;100849.84;5017440;28;20033;-90
2021/07/05 02:13:56;;;;;;;4.47;2.33;;;;;;;22.13;55.23;100856.84;5001245;28;20464;-89
2021/07/05 02:16:22;;;;;;;4.50;2.40;;;;;;;22.12;55.58;100850.75;5017657;28;20036;-91
2021/07/05 02:18:47;;;;;;;3.20;2.28;;;;;;;22.14;55.12;100845.44;5000816;28;20025;-90
2021/07/05 02:21:12;;;;;;;4.50;2.60;;;;;;;22.14;55.13;100838.41;5000822;28;20025;-89
2021/07/05 02:23:38;;;;;;;5.68;2.80;;;;;;;22.13;55.01;100839.34;5000751;28;20025;-85
2021/07/05 02:26:06;;;;;;;4.65;2.50;;;;;;;22.12;55.24;100832.41;5016909;28;20041;-85
2021/07/05 02:28:34;;;;;;;6.20;2.47;;;;;;;22.12;55.02;100834.13;5000633;28;20494;-84
2021/07/05 02:31:01;;;;;;;5.32;2.60;;;;;;;22.12;55.02;100834.13;5001035;28;20546;-85
2021/07/05 02:33:28;;;;;;;4.97;2.65;;;;;;;22.10;55.34;100831.56;4999873;28;20021;-84
2021/07/05 02:35:54;;;;;;;4.93;2.40;;;;;;;22.11;55.59;100833.28;5000600;28;20033;-86
2021/07/05 02:38:21;;;;;;;4.90;2.50;;;;;;;22.11;55.06;100833.28;5016921;28;20056;-86
2021/07/05 02:40:49;;;;;;;5.03;2.50;;;;;;;22.12;55.18;100836.75;5034456;28;20115;-89
2021/07/05 02:43:17;;;;;;;4.40;2.50;;;;;;;22.11;54.97;100837.66;5017194;28;20122;-88
2021/07/05 02:45:44;;;;;;;4.30;2.60;;;;;;;22.10;55.10;100839.44;5016629;28;20440;-89
2021/07/05 02:48:13;;;;;;;5.53;2.72;;;;;;;22.10;55.40;100838.56;5000271;28;20045;-89
2021/07/05 02:50:41;;;;;;;7.50;2.70;;;;;;;22.08;55.20;100832.50;5016837;28;20104;-89
2021/07/05 02:53:08;;;;;;;6.68;2.90;;;;;;;22.07;55.19;100829.03;5034241;28;20048;-89
2021/07/05 02:55:34;;;;;;;6.35;2.55;;;;;;;22.09;55.23;100837.69;5016884;28;20033;-91
2021/07/05 02:57:59;;;;;;;4.60;2.45;;;;;;;22.09;54.92;100831.63;4986124;28;20095;-90
2021/07/05 03:00:37;;;;;;;5.05;2.30;;;;;;;22.09;55.12;100826.38;5000952;28;20036;-90
2021/07/05 03:03:03;;;;;;;6.65;2.67;;;;;;;22.09;55.05;100831.63;5017603;28;20060;-89
2021/07/05 03:05:30;;;;;;;5.50;2.78;;;;;;;22.08;54.72;100829.88;5000733;28;20096;-91
2021/07/05 03:07:56;;;;;;;7.40;2.53;;;;;;;22.08;54.58;100820.28;5017157;28;20029;-90
2021/07/05 03:10:24;;;;;;;5.65;2.67;;;;;;;22.08;54.64;100819.41;5017605;28;20045;-89
2021/07/05 03:12:50;;;;;;;6.63;2.70;;;;;;;22.09;54.89;100818.50;5023458;28;20026;-90
2021/07/05 03:15:16;;;;;;;5.63;2.33;;;;;;;22.10;55.18;100826.34;5012664;28;20064;-89
2021/07/05 03:17:44;;;;;;;5.88;2.83;;;;;;;22.11;55.28;100827.19;5003171;28;20550;-89
2021/07/05 03:20:16;;;;;;;5.65;2.50;;;;;;;22.11;54.61;100824.56;4998404;28;20087;-90
2021/07/05 03:22:43;;;;;;;8.43;2.92;;;;;;;22.09;55.03;100827.22;5013592;28;20173;-91
2021/07/05 03:25:11;;;;;;;5.72;2.40;;;;;;;22.09;55.22;100827.22;5013233;28;20025;-91
2021/07/05 03:27:38;;;;;;;6.13;2.80;;;;;;;22.08;54.55;100824.63;5013052;28;20137;-89
2021/07/05 03:30:06;;;;;;;4.95;2.60;;;;;;;22.08;54.60;100830.75;4980581;28;20504;-89
2021/07/05 03:32:32;;;;;;;4.60;2.50;;;;;;;22.10;54.69;100830.69;4996744;28;20034;-89
2021/07/05 03:34:57;;;;;;;8.70;3.03;;;;;;;22.08;54.33;100835.13;4996774;28;20060;-85
2021/07/05 03:37:23;;;;;;;6.15;2.80;;;;;;;22.07;54.73;100833.41;5013601;28;20038;-85
2021/07/05 03:39:48;;;;;;;7.18;2.90;;;;;;;22.07;54.29;100829.03;4980379;28;20395;-85
2021/07/05 03:42:13;;;;;;;4.72;2.53;;;;;;;22.07;54.41;100828.19;5012475;28;20034;-85
2021/07/05 03:44:39;;;;;;;4.97;2.35;;;;;;;22.07;54.34;100825.56;4996173;28;20459;-85
2021/07/05 03:47:05;;;;;;;5.80;2.63;;;;;;;22.05;54.80;100825.59;5014413;28;20030;-85
2021/07/05 03:49:30;;;;;;;6.53;2.65;;;;;;;22.05;54.56;100817.72;4981260;28;20088;-85
2021/07/05 03:51:56;;;;;;;4.97;2.58;;;;;;;22.06;54.44;100826.44;5014345;28;20055;-85
2021/07/05 03:54:21;;;;;;;6.60;2.60;;;;;;;22.10;54.49;100833.31;4981160;28;20054;-82
2021/07/05 03:56:46;;;;;;;6.82;2.90;;;;;;;22.14;54.43;100840.19;4996318;28;20030;-81
2021/07/05 03:59:12;;;;;;;8.65;2.88;;;;;;;22.17;54.76;100837.50;4996076;28;20068;-79
2021/07/05 04:01:38;;;;;;;7.22;2.88;;;;;;;22.21;54.13;100843.50;4979994;28;20488;-80
2021/07/05 04:04:03;;;;;;;7.07;3.13;;;;;;;22.21;54.17;100839.13;5012485;28;20040;-80
2021/07/05 04:06:29;;;;;;;7.38;3.10;;;;;;;22.23;54.28;100844.34;5012409;28;20064;-81
2021/07/05 04:08:57;;;;;;;5.55;2.60;;;;;;;22.23;54.23;100844.34;4995733;28;20050;-80
2021/07/05 04:11:22;;;;;;;5.22;2.60;;;;;;;22.22;54.45;100845.22;4980287;28;20030;-81
2021/07/05 04:13:48;;;;;;;4.53;2.72;;;;;;;22.24;54.35;100849.56;4980222;28;20083;-82
2021/07/05 04:16:13;;;;;;;4.97;2.60;;;;;;;22.23;54.61;100850.44;5012874;28;20037;-81
2021/07/05 04:18:39;;;;;;;4.28;2.50;;;;;;;22.25;54.26;100850.41;4996588;28;20049;-81
2021/07/05 04:21:04;;;;;;;5.70;2.67;;;;;;;22.24;54.38;100849.56;5012023;28;20034;-80
2021/07/05 04:23:30;;;;;;;6.32;2.92;;;;;;;22.23;54.49;100839.94;4979901;28;20030;-79
2021/07/05 04:25:55;;;;;;;4.78;2.25;;;;;;;22.23;54.72;100845.19;4979681;28;20034;-81
2021/07/05 04:28:21;;;;;;;5.45;2.65;;;;;;;22.23;54.27;100839.94;4995786;28;20419;-81
2021/07/05 04:30:49;;;;;;;4.57;2.53;;;;;;;22.23;54.24;100842.56;4995883;28;20034;-81
2021/07/05 04:33:15;;;;;;;5.43;2.58;;;;;;;22.23;54.36;100828.63;4996147;28;20053;-80
2021/07/05 04:35:40;;;;;;;5.00;2.60;;;;;;;22.24;53.96;100819.88;5011974;28;20072;-80
2021/07/05 04:38:07;;;;;;;4.68;2.47;;;;;;;22.24;54.22;100807.59;4995692;28;20096;-80
2021/07/05 04:40:36;;;;;;;6.10;3.00;;;;;;;22.24;54.44;100802.38;4995793;28;20100;-80
2021/07/05 04:43:04;;;;;;;7.05;2.83;;;;;;;22.24;54.12;100793.66;5011886;28;20121;-80
2021/07/05 04:45:30;;;;;;;6.03;3.00;;;;;;;22.26;54.35;100821.53;5011933;28;20034;-80
2021/07/05 04:47:59;;;;;;;4.65;2.90;;;;;;;22.26;54.10;100831.16;4995574;28;20030;-81
2021/07/05 04:50:24;;;;;;;6.93;2.55;;;;;;;22.24;54.36;100818.09;5011809;28;20541;-83
2021/07/05 04:52:50;;;;;;;5.47;2.70;;;;;;;22.27;54.26;100835.50;5011676;28;20116;-83
2021/07/05 04:55:17;;;;;;;5.07;2.58;;;;;;;22.28;54.00;100832.84;4979330;28;20030;-84
2021/07/05 04:57:44;;;;;;;5.47;2.78;;;;;;;22.25;54.18;100835.53;4999846;28;20073;-87
2021/07/05 05:00:20;;;;;;;5.93;2.80;;;;;;;22.12;54.05;100834.13;4982976;28;20476;-85
2021/07/05 05:02:46;;;;;;;8.40;3.05;;;;;;;22.05;54.20;100835.22;5016674;28;20026;-85
2021/07/05 05:05:11;;;;;;;9.63;3.75;;;;;;;22.06;54.33;100831.69;5015518;28;20057;-85
2021/07/05 05:07:37;;;;;;;7.47;3.65;;;;;;;22.03;54.51;100834.41;4998951;28;20033;-83
2021/07/05 05:10:04;;;;;;;8.32;3.30;;;;;;;22.01;54.26;100833.59;5006343;28;20070;-80
2021/07/05 05:12:30;;;;;;;10.32;3.08;;;;;;;21.98;54.65;100845.00;4995421;28;20041;-79
2021/07/05 05:14:57;;;;;;;9.00;3.45;;;;;;;21.99;54.33;100836.25;4979307;28;20137;-81
2021/07/05 05:17:23;;;;;;;7.50;3.28;;;;;;;22.01;54.52;100836.19;4995367;28;20484;-85
2021/07/05 05:19:48;;;;;;;11.10;3.70;;;;;;;22.08;54.48;100833.38;4995297;28;20038;-86
2021/07/05 05:22:14;;;;;;;8.55;3.47;;;;;;;22.02;53.96;100825.69;4995505;28;20029;-87
2021/07/05 05:24:40;;;;;;;8.25;3.80;;;;;;;21.95;53.96;100832.00;4995689;28;20034;-85
2021/07/05 05:27:05;;;;;;;11.95;3.70;;;;;;;21.88;53.87;100819.97;4979052;28;20026;-86
2021/07/05 05:29:31;;;;;;;12.82;3.70;;;;;;;21.86;53.56;100824.38;4979117;28;20023;-87
2021/07/05 05:31:57;;;;;;;9.93;3.53;;;;;;;21.83;53.21;100821.84;4996392;28;20030;-85
2021/07/05 05:34:23;;;;;;;16.40;3.90;;;;;;;21.80;53.06;100814.94;4978920;28;20040;-86
2021/07/05 05:36:49;;;;;;;9.57;3.33;;;;;;;21.80;52.84;100814.06;4995371;28;20096;-86
2021/07/05 05:39:14;;;;;;;11.40;3.63;;;;;;;21.78;52.49;100809.75;4996707;28;20117;-86
2021/07/05 05:41:41;;;;;;;12.38;3.80;;;;;;;21.76;52.42;100826.41;4995058;28;20041;-87
2021/07/05 05:44:06;;;;;;;11.85;3.72;;;;;;;21.76;52.74;100821.16;4996261;28;20027;-85
2021/07/05 05:46:33;;;;;;;13.07;3.55;;;;;;;21.76;52.53;100819.41;4995007;28;20088;-85
2021/07/05 05:48:59;;;;;;;10.68;3.38;;;;;;;21.74;52.25;100817.72;4994749;28;20439;-86
2021/07/05 05:51:31;;;;;;;16.92;3.70;;;;;;;21.75;52.31;100816.81;4978730;28;20026;-84
2021/07/05 05:53:57;;;;;;;12.35;3.65;;;;;;;21.73;52.17;100822.13;4979534;28;20465;-86
2021/07/05 05:56:23;;;;;;;10.55;3.60;;;;;;;21.74;51.99;100821.19;4978862;28;20045;-86
2021/07/05 05:58:48;;;;;;;14.00;4.07;;;;;;;21.74;51.96;100820.34;4994850;28;20393;-85
2021/07/05 06:01:13;;;;;;;12.32;3.33;;;;;;;21.77;51.91;100822.88;4978658;28;20030;-85
2021/07/05 06:03:39;;;;;;;12.00;3.33;;;;;;;21.80;51.61;100821.94;4978366;28;20038;-86
2021/07/05 06:06:04;;;;;;;12.10;4.00;;;;;;;21.78;51.64;100829.84;4994736;28;20477;-86
2021/07/05 06:08:29;;;;;;;12.55;3.35;;;;;;;21.74;51.91;100829.06;4980787;28;20030;-87
2021/07/05 06:10:55;;;;;;;10.77;3.50;;;;;;;21.73;51.69;100829.97;5000808;28;20102;-87
2021/07/05 06:13:21;;;;;;;14.00;3.85;;;;;;;21.71;51.72;100823.91;5018451;28;20540;-93
2021/07/05 06:15:46;;;;;;;14.82;3.55;;;;;;;21.72;51.68;100824.78;5002150;28;20056;-93
2021/07/05 06:18:12;;;;;;;15.10;4.15;;;;;;;21.70;51.95;100821.34;5036553;28;20439;-93
2021/07/05 06:20:38;;;;;;;14.75;3.63;;;;;;;21.72;51.67;100828.25;5020003;28;20101;-92
2021/07/05 06:23:15;;;;;;;13.65;3.80;;;;;;;21.70;51.54;100832.66;4988911;28;20078;-92
2021/07/05 06:25:40;;;;;;;13.05;3.83;;;;;;;21.71;51.39;100833.50;5028147;28;20442;-92
2021/07/05 06:28:05;;;;;;;14.38;3.75;;;;;;;21.71;51.71;100837.00;5025719;28;20032;-92
2021/07/05 06:30:31;;;;;;;14.50;4.18;;;;;;;21.69;51.74;100845.81;4987814;28;20065;-92
2021/07/05 06:32:56;;;;;;;11.88;3.40;;;;;;;21.74;51.72;100849.16;5024750;28;20022;-92
2021/07/05 06:35:22;;;;;;;13.15;3.42;;;;;;;21.77;51.04;100849.94;4995361;28;20056;-93
2021/07/05 06:37:47;;;;;;;11.95;4.00;;;;;;;21.82;51.40;100848.94;4990928;28;20034;-93
2021/07/05 06:40:12;;;;;;;10.48;3.50;;;;;;;21.85;51.40;100836.63;4998013;28;20026;-93
2021/07/05 06:42:38;;;;;;;10.65;3.58;;;;;;;21.90;50.87;100849.59;5025459;28;20471;-86
2021/07/05 06:45:05;;;;;;;12.07;3.53;;;;;;;21.91;50.88;100844.31;5003804;28;20529;-85
2021/07/05 06:47:31;;;;;;;13.43;4.00;;;;;;;21.87;51.00;100847.94;5001461;28;20140;-86
2021/07/05 06:49:56;;;;;;;11.13;3.53;;;;;;;21.89;51.23;100838.28;4984774;28;20116;-87
2021/07/05 06:52:22;;;;;;;12.10;3.50;;;;;;;21.98;51.24;100834.53;5000314;28;20112;-86
2021/07/05 06:54:47;;;;;;;14.95;3.75;;;;;;;22.25;50.73;100842.53;5000353;28;20022;-85
2021/07/05 06:57:31;;;;;;;13.25;3.83;;;;;;;22.26;50.46;100849.50;5000659;28;20537;-92
2021/07/05 06:59:57;;;;;;;12.07;3.40;;;;;;;22.17;51.08;100847.97;5003610;28;20036;-91
2021/07/05 07:02:23;;;;;;;10.00;3.15;;;;;;;22.33;50.46;100844.03;5017103;28;20468;-91
2021/07/05 07:04:49;;;;;;;11.23;3.65;;;;;;;23.11;48.95;100842.56;5000720;28;20068;-91
2021/07/05 07:07:15;;;;;;;15.02;3.63;;;;;;;22.90;49.25;100855.41;5017053;28;20044;-91
2021/07/05 07:09:40;;;;;;;13.77;3.20;;;;;;;22.51;50.10;100845.25;5034140;28;20403;-83
2021/07/05 07:12:06;;;;;;;9.32;2.92;;;;;;;22.45;50.44;100841.94;4999777;28;20498;-83
2021/07/05 07:14:31;;;;;;;10.68;2.88;;;;;;;22.65;49.84;100844.00;4983498;28;20021;-83
2021/07/05 07:17:05;;;;;;;10.60;3.40;;;;;;;22.47;50.30;100848.00;4983502;28;20037;-84
2021/07/05 07:19:31;;;;;;;11.23;3.30;;;;;;;22.32;50.69;100857.19;4985543;28;20029;-84
2021/07/05 07:21:58;;;;;;;9.55;3.40;;;;;;;22.22;50.69;100848.72;5015894;28;20064;-83
2021/07/05 07:24:24;;;;;;;9.70;2.92;;;;;;;22.12;51.08;100855.09;5000354;28;20055;-91
2021/07/05 07:26:49;;;;;;;12.95;3.10;;;;;;;22.11;50.92;100864.72;5000275;28;20468;-84
2021/07/05 07:29:15;;;;;;;11.57;3.05;;;;;;;22.09;50.58;100861.28;4983344;28;20045;-84
2021/07/05 07:31:41;;;;;;;14.43;3.35;;;;;;;22.07;50.65;100870.97;5033690;28;20084;-84
2021/07/05 07:34:07;;;;;;;11.15;3.40;;;;;;;22.00;50.73;100861.56;4999988;28;20029;-90
2021/07/05 07:36:33;;;;;;;12.45;3.42;;;;;;;21.99;50.45;100865.06;5001853;28;20441;-90
2021/07/05 07:39:05;;;;;;;12.63;3.45;;;;;;;21.96;50.60;100860.78;5020365;28;20025;-90
2021/07/05 07:41:33;;;;;;;10.75;3.20;;;;;;;21.98;50.31;100868.59;5018784;28;20034;-91
2021/07/05 07:43:59;;;;;;;10.00;3.00;;;;;;;21.99;50.57;100865.06;5002037;28;20038;-90
2021/07/05 07:46:25;;;;;;;14.02;3.40;;;;;;;22.01;50.38;100868.50;5017198;28;20029;-92
2021/07/05 07:48:50;;;;;;;14.95;3.78;;;;;;;22.03;50.41;100858.84;5016157;28;20025;-92
2021/07/05 07:51:16;;;;;;;14.15;3.75;;;;;;;22.03;50.53;100864.06;5017058;28;20022;-93
2021/07/05 07:53:41;;;;;;;10.35;3.50;;;;;;;22.02;50.23;100858.91;5015906;28;20115;-91
2021/07/05 07:56:06;;;;;;;11.93;3.58;;;;;;;22.05;50.16;100872.75;4999743;28;20026;-83
2021/07/05 07:58:32;;;;;;;13.30;3.92;;;;;;;22.03;50.11;100865.84;4983042;28;20041;-85
2021/07/05 08:00:57;;;;;;;12.63;3.25;;;;;;;22.02;50.06;100880.72;4983190;28;20033;-84
2021/07/05 08:03:22;;;;;;;13.65;3.90;;;;;;;21.97;49.98;100872.97;4999112;28;20026;-86
2021/07/05 08:05:48;;;;;;;15.23;3.78;;;;;;;22.00;49.93;100876.44;4999209;28;20491;-83
2021/07/05 08:08:15;;;;;;;17.08;3.80;;;;;;;21.99;50.12;100875.53;5015613;28;20033;-84
2021/07/05 08:10:41;;;;;;;11.13;3.53;;;;;;;22.02;49.66;100874.63;4999737;28;20088;-91
2021/07/05 08:13:06;;;;;;;12.50;3.75;;;;;;;22.04;49.59;100870.19;5016277;28;20033;-91
2021/07/05 08:15:32;;;;;;;11.60;3.53;;;;;;;22.06;49.25;100876.22;4983449;28;20026;-91
2021/07/05 08:17:57;;;;;;;12.45;3.42;;;;;;;22.32;48.53;100867.66;5016516;28;20456;-90
2021/07/05 08:20:23;;;;;;;15.32;3.90;;;;;;;22.39;48.23;100871.84;4999919;28;20368;-91
2021/07/05 08:22:53;;;;;;;14.73;3.55;;;;;;;22.24;48.53;100867.06;5016003;28;20035;-91
2021/07/05 08:25:20;;;;;;;11.20;3.70;;;;;;;22.21;48.76;100865.34;5033808;28;20033;-91
2021/07/05 08:27:46;;;;;;;11.15;3.58;;;;;;;22.42;48.13;100857.78;5016422;28;20022;-91
2021/07/05 08:30:12;;;;;;;18.95;4.07;;;;;;;22.63;47.44;100872.03;5016567;28;20100;-91
2021/07/05 08:32:37;;;;;;;12.00;3.75;;;;;;;22.36;47.97;100872.81;5002849;28;20036;-91
2021/07/05 08:35:05;;;;;;;19.50;4.22;;;;;;;22.22;48.44;100871.44;5003817;28;20134;-92
2021/07/05 08:37:30;;;;;;;15.38;3.80;;;;;;;22.09;48.19;100874.41;5003876;28;20036;-91
2021/07/05 08:39:55;;;;;;;16.23;3.88;;;;;;;22.13;48.41;100877.81;5003195;28;20038;-93
2021/07/05 08:42:26;;;;;;;14.05;3.88;;;;;;;22.31;48.30;100876.44;5019785;28;20026;-92
2021/07/05 08:44:52;;;;;;;16.35;4.05;;;;;;;22.58;47.72;100877.38;5035938;28;20025;-91
2021/07/05 08:47:19;;;;;;;15.70;3.58;;;;;;;22.67;46.98;100871.00;5019686;28;20045;-90
2021/07/05 08:49:46;;;;;;;13.10;3.85;;;;;;;22.74;47.33;100864.69;5003704;28;20021;-91
2021/07/05 08:52:11;;;;;;;13.10;3.80;;;;;;;22.70;47.64;100858.66;5019528;28;20017;-91
2021/07/05 08:54:37;;;;;;;15.25;4.18;;;;;;;22.72;47.77;100871.75;5003476;28;20120;-89
2021/07/05 08:57:03;;;;;;;10.95;3.38;;;;;;;22.67;47.90;100871.88;5003444;28;20135;-91
2021/07/05 08:59:31;;;;;;;11.45;3.72;;;;;;;22.61;47.84;100871.22;4987355;28;20025;-90
2021/07/05 09:01:57;;;;;;;10.88;3.10;;;;;;;22.64;47.94;100871.09;5019670;28;20033;-91
2021/07/05 09:04:22;;;;;;;11.38;3.55;;;;;;;23.02;47.10;100869.97;4987751;28;20035;-91
2021/07/05 09:07:01;;;;;;;11.02;3.58;;;;;;;23.08;47.30;100866.28;4987181;28;20026;-92
2021/07/05 09:09:27;;;;;;;12.18;3.67;;;;;;;23.10;47.16;100867.94;5020323;28;20514;-92
2021/07/05 09:11:52;;;;;;;10.02;3.30;;;;;;;23.33;46.84;100863.72;4986855;28;20034;-91
2021/07/05 09:14:23;;;;;;;13.63;3.55;;;;;;;23.20;46.69;100855.38;5003109;28;20471;-91
2021/07/05 09:16:51;;;;;;;11.60;3.45;;;;;;;23.09;47.24;100852.25;5019310;28;20440;-91
2021/07/05 09:19:23;;;;;;;10.27;3.70;;;;;;;23.14;47.16;100864.31;5003277;28;20029;-90
2021/07/05 09:22:01;;;;;;;8.60;3.20;;;;;;;23.23;47.36;100864.91;5019018;28;20136;-91
2021/07/05 09:24:36;;;;;;;9.75;3.25;;;;;;;23.14;47.27;100868.69;5019576;28;20033;-92
2021/07/05 09:27:01;;;;;;;10.98;3.40;;;;;;;23.03;47.42;100868.19;5019436;28;20021;-91
2021/07/05 09:29:27;;;;;;;10.80;3.58;;;;;;;22.95;47.45;100863.13;5019220;28;20493;-91
2021/07/05 09:31:58;;;;;;;10.10;3.38;;;;;;;22.90;48.26;100868.53;5003104;28;20025;-92
2021/07/05 09:34:43;;;;;;;10.18;3.58;;;;;;;22.87;47.96;100868.66;5019059;28;20021;-91
2021/07/05 09:37:27;;;;;;;9.07;3.15;;;;;;;22.88;47.93;100872.97;5018745;28;20360;-91
2021/07/05 09:40:07;;;;;;;8.65;3.28;;;;;;;22.87;47.80;100878.28;5019191;28;20116;-91
2021/07/05 09:42:34;;;;;;;9.07;3.20;;;;;;;22.83;47.65;100879.28;5019267;28;20029;-91
2021/07/05 09:45:01;;;;;;;8.77;2.97;;;;;;;22.79;48.19;100876.75;5019385;28;20037;-90
2021/07/05 09:47:27;;;;;;;9.57;3.40;;;;;;;22.79;48.21;100871.50;5007372;28;20401;-91
2021/07/05 09:49:59;;;;;;;9.20;3.22;;;;;;;22.85;48.30;100880.94;5020103;28;20034;-90
2021/07/05 09:52:27;;;;;;;10.32;3.40;;;;;;;22.90;48.05;100883.44;5003862;28;20037;-90
2021/07/05 09:54:59;;;;;;;8.93;3.10;;;;;;;22.89;48.14;100889.59;5019916;28;20090;-92
2021/07/05 09:57:39;;;;;;;10.80;3.65;;;;;;;22.89;48.07;100884.34;5025576;28;20036;-91
2021/07/05 10:00:10;;;;;;;8.90;2.95;;;;;;;22.88;47.98;100878.22;5025243;28;20120;-91
2021/07/05 10:02:37;;;;;;;10.23;3.10;;;;;;;22.85;48.59;100883.56;5024144;28;20025;-91
2021/07/05 10:05:14;;;;;;;9.32;3.05;;;;;;;22.86;48.14;100887.06;5024688;28;20104;-91
2021/07/05 10:07:40;;;;;;;11.00;3.45;;;;;;;22.88;48.25;100883.47;5041969;28;20984;-92
2021/07/05 10:10:18;;;;;;;7.70;2.90;;;;;;;22.89;47.98;100874.72;5041417;28;20468;-91
2021/07/05 10:12:52;;;;;;;7.50;2.97;;;;;;;22.96;48.19;100875.38;5009561;28;20029;-91
2021/07/05 10:15:17;;;;;;;9.55;3.25;;;;;;;22.95;48.28;100882.41;5023790;28;20044;-91
2021/07/05 10:17:48;;;;;;;8.07;2.97;;;;;;;22.98;48.01;100878.81;5003991;28;20472;-91
2021/07/05 10:20:25;;;;;;;8.23;3.08;;;;;;;23.05;47.98;100874.25;5020006;28;20030;-90
2021/07/05 10:22:53;;;;;;;9.25;3.00;;;;;;;23.03;48.19;100871.66;5020891;28;20025;-91
2021/07/05 10:25:20;;;;;;;7.55;2.95;;;;;;;22.94;48.03;100877.19;5024711;28;20029;-90
2021/07/05 10:27:45;;;;;;;8.38;2.90;;;;;;;22.90;48.26;100881.66;5009960;28;20053;-90
2021/07/05 10:30:13;;;;;;;6.72;2.80;;;;;;;22.89;48.48;100877.34;5012529;28;20430;-91
2021/07/05 10:32:40;;;;;;;6.95;2.90;;;;;;;22.92;48.27;100877.22;5031376;28;20021;-93
2021/07/05 10:35:09;;;;;;;6.95;3.05;;;;;;;22.94;48.20;100871.94;5013510;28;20036;-89
2021/07/05 10:37:39;;;;;;;7.53;2.60;;;;;;;22.94;48.09;100878.03;5023070;28;20132;-91
2021/07/05 10:40:09;;;;;;;8.45;3.33;;;;;;;22.96;48.09;100881.47;5018905;28;20149;-84
2021/07/05 10:42:40;;;;;;;7.68;2.60;;;;;;;22.97;48.20;100887.56;5034893;28;20122;-85
2021/07/05 10:45:30;;;;;;;5.63;2.38;;;;;;;22.97;48.13;100877.97;5016759;28;20028;-84
2021/07/05 10:47:56;;;;;;;7.30;2.92;;;;;;;23.01;48.04;100881.34;4962546;28;20483;-84
2021/07/05 10:50:47;;;;;;;7.63;2.75;;;;;;;23.05;47.76;100863.75;5016670;28;20029;-84
2021/07/05 10:53:38;;;;;;;6.75;2.75;;;;;;;23.06;47.94;100882.09;5034301;28;20036;-85
2021/07/05 10:56:23;;;;;;;8.00;2.88;;;;;;;23.05;47.76;100877.72;5016493;28;20029;-85
2021/07/05 10:58:50;;;;;;;6.35;2.95;;;;;;;23.05;48.13;100882.97;5016824;28;20029;-83
2021/07/05 11:01:39;;;;;;;5.25;2.60;;;;;;;23.06;47.64;100868.97;5017019;28;20472;-84
2021/07/05 11:04:16;;;;;;;14.10;2.67;;;;;;;23.04;47.69;100877.78;5034345;28;20037;-84
2021/07/05 11:06:43;;;;;;;6.53;3.20;;;;;;;22.95;48.60;100871.91;5016342;28;20170;-84
2021/07/05 11:09:09;;;;;;;6.10;3.10;;;;;;;22.94;49.35;100882.44;5032669;28;20069;-84
2021/07/05 11:11:45;;;;;;;6.53;3.15;;;;;;;22.93;49.17;100880.69;5000162;28;20021;-84
2021/07/05 11:14:27;;;;;;;7.70;3.42;;;;;;;22.86;49.46;100882.66;5016146;28;20024;-89
2021/07/05 11:17:00;;;;;;;5.78;2.90;;;;;;;22.86;49.11;100879.19;5016511;28;20013;-87
2021/07/05 11:19:36;;;;;;;6.53;2.83;;;;;;;22.83;48.83;100874.03;5017030;28;20025;-88
2021/07/05 11:22:11;;;;;;;8.68;3.10;;;;;;;22.84;49.15;100875.75;5017449;28;20029;-88